Time;durP1;ratioP1;P1;durP2;ratioP2;P2;SDS_P1;SDS_P2;PMS_P1;PMS_P2;Temp;Humidity;BMP_temperature;BMP_pressure;BME280_temperature;BME280_humidity;BME280_pressure;Samples;Min_cycle;Max_cycle;Signal;HPM_P1;HPM_P2
2024/01/15 00:01:13;;;;;;;33.22;18.70;;;;;;;2.66;80.38;100550.03;5032405;28;20072;-65
2024/01/15 00:03:40;;;;;;;33.00;17.65;;;;;;;2.56;80.91;100561.72;5032665;28;20045;-65
2024/01/15 00:06:09;;;;;;;29.50;17.60;;;;;;;2.32;81.89;100552.31;5026010;28;20145;-65
2024/01/15 00:08:37;;;;;;;31.50;17.73;;;;;;;2.35;82.86;100540.94;5030659;28;20069;-64
2024/01/15 00:11:04;;;;;;;32.50;19.00;;;;;;;2.54;82.53;100535.84;5025156;28;20064;-65
2024/01/15 00:13:31;;;;;;;34.95;19.27;;;;;;;2.68;81.40;100534.28;5026528;28;20045;-65
2024/01/15 00:15:58;;;;;;;34.30;18.65;;;;;;;2.45;82.26;100523.84;5028303;28;20060;-65
2024/01/15 00:18:26;;;;;;;30.90;17.90;;;;;;;2.57;81.81;100519.84;5027847;28;20045;-65
2024/01/15 00:20:53;;;;;;;36.67;19.15;;;;;;;2.40;82.35;100511.06;5028188;28;20057;-65
2024/01/15 00:23:21;;;;;;;30.52;17.33;;;;;;;2.48;82.47;100509.72;5027202;28;20056;-64
2024/01/15 00:25:48;;;;;;;32.38;18.67;;;;;;;2.47;82.65;100514.38;5026822;28;20064;-64
2024/01/15 00:28:15;;;;;;;34.00;18.65;;;;;;;2.48;82.53;100513.25;5025839;28;20052;-65
2024/01/15 00:30:45;;;;;;;32.10;19.02;;;;;;;2.40;83.06;100504.81;5028792;28;20054;-64
2024/01/15 00:33:14;;;;;;;30.52;18.42;;;;;;;2.34;82.92;100505.88;5027509;28;20049;-65
2024/01/15 00:35:42;;;;;;;32.90;19.25;;;;;;;2.38;84.60;100512.41;5032442;28;20065;-65
2024/01/15 00:38:09;;;;;;;32.83;17.88;;;;;;;2.43;83.76;100507.00;5025465;28;20075;-65
2024/01/15 00:40:37;;;;;;;32.42;18.70;;;;;;;2.32;84.10;100499.88;5028780;28;20606;-65
2024/01/15 00:43:07;;;;;;;33.28;18.10;;;;;;;2.53;84.40;100493.47;5028200;28;20042;-64
2024/01/15 00:45:34;;;;;;;32.63;17.58;;;;;;;2.41;83.88;100488.22;5028172;28;20054;-66
2024/01/15 00:48:03;;;;;;;32.03;17.73;;;;;;;2.63;83.71;100486.16;5025768;28;20057;-65
2024/01/15 00:50:30;;;;;;;31.17;18.27;;;;;;;2.51;83.58;100485.53;5026596;28;20044;-65
2024/01/15 00:52:58;;;;;;;32.63;18.13;;;;;;;2.43;83.92;100479.81;5025897;28;20049;-65
2024/01/15 00:55:28;;;;;;;33.55;18.67;;;;;;;2.58;83.93;100477.97;5025235;28;20052;-64
2024/01/15 00:57:55;;;;;;;28.75;17.48;;;;;;;2.61;83.91;100482.88;5027980;28;20056;-65
2024/01/15 01:00:23;;;;;;;29.67;17.52;;;;;;;2.53;84.18;100472.50;5027754;28;20049;-65
2024/01/15 01:02:50;;;;;;;29.88;17.30;;;;;;;2.47;83.43;100470.88;5034823;28;20056;-64
2024/01/15 01:05:18;;;;;;;32.35;18.52;;;;;;;2.33;84.22;100458.03;5028093;28;20056;-65
2024/01/15 01:07:46;;;;;;;31.80;18.67;;;;;;;2.58;85.07;100458.94;4992563;28;20053;-65
2024/01/15 01:10:13;;;;;;;29.88;17.58;;;;;;;2.66;84.07;100460.31;5028332;28;20627;-66
2024/01/15 01:12:51;;;;;;;33.83;17.80;;;;;;;2.60;83.95;100466.84;5028073;28;20049;-66
2024/01/15 01:15:19;;;;;;;31.73;17.45;;;;;;;2.37;85.29;100465.41;5018362;28;20049;-65
2024/01/15 01:17:48;;;;;;;31.17;17.50;;;;;;;2.46;85.58;100457.56;5010088;28;20057;-67
2024/01/15 01:20:15;;;;;;;30.73;17.50;;;;;;;2.37;86.14;100459.97;5026261;28;20053;-64
2024/01/15 01:22:45;;;;;;;;;;;;;;;2.46;85.72;100463.78;5025747;28;20076;-65
2024/01/15 01:25:12;;;;;;;30.90;17.25;;;;;;;2.44;85.75;100468.66;5027641;28;19925;-65
2024/01/15 01:27:40;;;;;;;33.08;18.15;;;;;;;2.25;86.15;100473.75;5026137;28;20049;-64
2024/01/15 01:30:08;;;;;;;33.10;18.85;;;;;;;2.40;86.60;100466.75;5027240;28;20053;-64
2024/01/15 01:32:36;;;;;;;32.05;18.58;;;;;;;2.69;85.89;100468.75;5028876;28;20046;-64
2024/01/15 01:35:04;;;;;;;32.28;19.25;;;;;;;2.68;84.97;100460.88;5024939;28;20049;-66
2024/01/15 01:37:31;;;;;;;30.60;18.65;;;;;;;2.62;85.34;100451.06;5025751;28;20050;-65
2024/01/15 01:39:59;;;;;;;31.85;17.67;;;;;;;2.63;85.13;100458.16;5022970;28;20049;-64
2024/01/15 01:42:28;;;;;;;32.80;18.00;;;;;;;2.65;84.74;100456.78;5025029;28;20057;-65
2024/01/15 01:44:56;;;;;;;32.65;18.65;;;;;;;2.47;84.57;100459.16;5026515;28;20045;-65
2024/01/15 01:47:26;;;;;;;32.53;18.48;;;;;;;2.46;85.02;100449.41;5026973;28;20049;-65
2024/01/15 01:49:53;;;;;;;34.83;18.65;;;;;;;2.60;84.81;100454.03;5029169;28;20046;-65
2024/01/15 01:52:24;;;;;;;33.08;18.02;;;;;;;2.67;84.96;100442.94;5027696;28;20672;-64
2024/01/15 01:54:51;;;;;;;29.17;17.92;;;;;;;2.63;84.97;100450.81;5027366;28;20049;-64
2024/01/15 01:57:19;;;;;;;32.17;18.27;;;;;;;2.72;85.10;100437.50;5027441;28;20049;-65
2024/01/15 01:59:47;;;;;;;33.17;18.33;;;;;;;2.81;84.86;100444.84;5024122;28;20053;-65
2024/01/15 02:02:15;;;;;;;33.08;17.77;;;;;;;2.98;84.42;100439.97;5026150;28;20067;-65
2024/01/15 02:04:42;;;;;;;30.02;17.38;;;;;;;3.07;84.12;100438.38;5024466;28;20053;-65
2024/01/15 02:07:09;;;;;;;29.45;17.27;;;;;;;3.02;83.33;100434.81;5026662;28;20049;-64
2024/01/15 02:09:37;;;;;;;35.25;18.40;;;;;;;3.40;83.38;100424.22;5027343;28;20053;-65
2024/01/15 02:12:04;;;;;;;30.65;17.80;;;;;;;3.13;83.04;100426.41;5026692;28;20449;-64
2024/01/15 02:14:32;;;;;;;32.75;18.88;;;;;;;2.87;83.87;100418.50;5025259;28;20606;-65
2024/01/15 02:16:59;;;;;;;35.13;17.77;;;;;;;2.92;84.78;100405.72;5027595;28;20041;-65
2024/01/15 02:19:27;;;;;;;29.95;17.15;;;;;;;3.09;84.53;100406.25;5024735;28;20057;-65
2024/01/15 02:21:54;;;;;;;29.23;17.67;;;;;;;3.13;84.16;100398.38;5025641;28;20393;-65
2024/01/15 02:24:21;;;;;;;30.83;17.17;;;;;;;3.25;83.71;100386.13;5026818;28;20060;-64
2024/01/15 02:26:49;;;;;;;31.35;18.13;;;;;;;3.27;84.00;100385.84;5026348;28;20374;-65
2024/01/15 02:29:17;;;;;;;29.70;17.42;;;;;;;3.36;83.75;100392.38;5023045;28;20056;-65
2024/01/15 02:31:44;;;;;;;28.85;16.63;;;;;;;3.21;83.74;100387.75;5024384;28;20057;-65
2024/01/15 02:34:12;;;;;;;32.70;17.65;;;;;;;3.22;83.80;100386.69;5025546;28;20050;-65
2024/01/15 02:36:39;;;;;;;32.20;17.58;;;;;;;3.34;83.90;100380.94;5025591;28;20049;-65
2024/01/15 02:39:07;;;;;;;31.10;17.13;;;;;;;3.19;83.97;100398.09;5026865;28;20053;-64
2024/01/15 02:41:34;;;;;;;27.55;15.85;;;;;;;3.05;84.32;100391.56;5023789;28;20709;-64
2024/01/15 02:44:01;;;;;;;27.17;16.17;;;;;;;3.22;84.29;100399.47;5022680;28;20045;-58
2024/01/15 02:46:28;;;;;;;30.13;16.48;;;;;;;3.14;84.32;100406.25;5024527;28;20049;-59
2024/01/15 02:48:56;;;;;;;27.85;16.48;;;;;;;3.09;84.18;100414.44;5026157;28;20057;-60
2024/01/15 02:51:24;;;;;;;27.75;16.02;;;;;;;2.91;85.16;100416.88;4991931;28;20058;-66
2024/01/15 02:53:52;;;;;;;29.60;16.90;;;;;;;2.60;85.51;100413.25;5028889;28;20058;-66
2024/01/15 02:56:19;;;;;;;33.63;17.98;;;;;;;2.56;86.84;100408.66;5027242;28;20041;-65
2024/01/15 02:58:46;;;;;;;29.90;17.08;;;;;;;2.79;86.73;100408.16;5030387;28;20606;-65
2024/01/15 03:01:13;;;;;;;30.55;17.35;;;;;;;2.58;86.87;100410.00;5029654;28;20041;-65
2024/01/15 03:03:41;;;;;;;25.92;15.50;;;;;;;2.75;86.30;100412.50;5028053;28;20052;-65
2024/01/15 03:06:10;;;;;;;30.55;17.15;;;;;;;2.87;85.55;100404.88;5028375;28;20056;-66
2024/01/15 03:08:37;;;;;;;30.23;18.23;;;;;;;2.90;84.75;100404.34;5028720;28;20050;-59
2024/01/15 03:11:05;;;;;;;29.50;17.15;;;;;;;2.86;85.05;100403.28;5028472;28;20062;-61
2024/01/15 03:13:35;;;;;;;31.65;17.95;;;;;;;2.80;85.09;100407.88;5028686;28;20418;-60
2024/01/15 03:16:05;;;;;;;33.00;17.60;;;;;;;2.91;84.84;100403.28;5029879;28;20080;-65
2024/01/15 03:18:32;;;;;;;33.13;18.90;;;;;;;3.18;84.21;100404.63;5026454;28;20045;-66
2024/01/15 03:21:01;;;;;;;29.23;17.42;;;;;;;3.19;83.11;100402.75;5028355;28;20053;-64
2024/01/15 03:23:28;;;;;;;28.23;16.88;;;;;;;3.15;82.82;100393.47;5028561;28;20491;-59
2024/01/15 03:25:55;;;;;;;30.98;17.92;;;;;;;2.92;83.61;100403.00;5029531;28;20145;-59
2024/01/15 03:28:23;;;;;;;28.75;16.95;;;;;;;3.06;84.04;100404.09;5027442;28;20057;-62
2024/01/15 03:30:50;;;;;;;28.20;16.55;;;;;;;3.05;83.43;100412.53;5028536;28;20587;-60
2024/01/15 03:33:17;;;;;;;27.75;16.48;;;;;;;2.93;84.03;100420.94;5029888;28;20064;-59
2024/01/15 03:35:45;;;;;;;28.58;16.77;;;;;;;2.89;84.99;100419.03;5028715;28;20042;-61
2024/01/15 03:38:12;;;;;;;31.50;17.75;;;;;;;2.97;84.60;100419.31;5030643;28;20056;-60
2024/01/15 03:40:39;;;;;;;26.80;16.27;;;;;;;3.02;84.71;100419.31;5027624;28;20056;-65
2024/01/15 03:43:07;;;;;;;27.48;16.17;;;;;;;3.22;84.40;100418.50;5027091;28;20056;-59
2024/01/15 03:45:34;;;;;;;31.08;16.50;;;;;;;3.06;83.89;100414.97;5028453;28;20057;-60
2024/01/15 03:48:01;;;;;;;30.52;17.60;;;;;;;2.86;85.21;100419.59;5029516;28;20061;-64
2024/01/15 03:50:29;;;;;;;29.08;17.25;;;;;;;2.80;85.82;100409.78;5027923;28;20052;-65
2024/01/15 03:52:56;;;;;;;33.22;16.83;;;;;;;2.83;86.26;100407.34;5028147;28;20045;-65
2024/01/15 03:55:23;;;;;;;29.10;15.73;;;;;;;2.75;87.38;100407.06;5029471;28;20045;-64
2024/01/15 03:57:51;;;;;;;29.73;16.00;;;;;;;2.79;87.56;100408.94;5028461;28;20049;-60
2024/01/15 04:00:18;;;;;;;27.10;15.88;;;;;;;2.99;87.15;100392.66;5029669;28;20548;-59
2024/01/15 04:02:45;;;;;;;27.48;15.52;;;;;;;2.86;87.56;100395.09;5027601;28;20049;-66
2024/01/15 04:05:13;;;;;;;26.30;15.60;;;;;;;3.01;88.16;100389.66;5026821;28;20056;-64
2024/01/15 04:07:40;;;;;;;26.02;14.70;;;;;;;2.99;88.04;100386.41;5026740;28;20069;-59
2024/01/15 04:10:08;;;;;;;26.23;14.68;;;;;;;2.97;88.71;100380.41;5028010;28;20151;-59
2024/01/15 04:12:35;;;;;;;29.08;16.08;;;;;;;2.90;88.84;100371.69;5025737;28;20053;-60
2024/01/15 04:15:02;;;;;;;28.58;14.55;;;;;;;3.00;88.62;100372.53;5028333;28;20042;-59
2024/01/15 04:17:29;;;;;;;27.88;14.85;;;;;;;3.07;88.38;100370.34;5028371;28;20078;-59
2024/01/15 04:19:57;;;;;;;26.30;15.48;;;;;;;2.82;88.83;100370.34;5009856;28;20056;-58
2024/01/15 04:22:25;;;;;;;27.95;15.00;;;;;;;2.96;88.94;100365.19;5023803;28;20401;-59
2024/01/15 04:24:52;;;;;;;26.48;14.82;;;;;;;3.08;88.05;100360.28;5027620;28;20049;-60
2024/01/15 04:27:19;;;;;;;24.92;14.80;;;;;;;3.00;87.79;100358.13;5024124;28;20053;-61
2024/01/15 04:29:47;;;;;;;27.58;14.93;;;;;;;3.10;87.86;100358.13;5028263;28;20693;-66
2024/01/15 04:32:14;;;;;;;25.88;15.00;;;;;;;3.09;87.85;100364.63;5028999;28;20065;-65
2024/01/15 04:34:41;;;;;;;28.23;15.13;;;;;;;3.32;87.98;100358.63;5028823;28;20495;-65
2024/01/15 04:37:09;;;;;;;24.83;14.35;;;;;;;3.06;87.25;100357.84;5028975;28;20046;-65
2024/01/15 04:39:36;;;;;;;23.42;14.30;;;;;;;3.10;87.76;100345.31;5025447;28;20053;-64
2024/01/15 04:42:04;;;;;;;29.48;14.73;;;;;;;3.11;88.28;100338.78;5027675;28;20057;-65
2024/01/15 04:44:31;;;;;;;28.83;15.50;;;;;;;3.26;87.92;100346.91;5029434;28;20064;-65
2024/01/15 04:46:59;;;;;;;25.50;15.23;;;;;;;3.13;88.11;100352.13;5028633;28;20524;-64
2024/01/15 04:49:27;;;;;;;27.23;15.82;;;;;;;3.10;88.99;100345.31;5035333;28;20064;-58
2024/01/15 04:51:54;;;;;;;27.60;15.65;;;;;;;3.12;89.89;100345.84;5027991;28;20068;-65
2024/01/15 04:54:22;;;;;;;26.75;14.57;;;;;;;3.05;89.91;100339.06;5030080;28;20301;-65
2024/01/15 04:56:49;;;;;;;28.55;15.25;;;;;;;3.04;90.35;100338.25;5026458;28;20074;-65
2024/01/15 04:59:16;;;;;;;28.73;14.75;;;;;;;3.12;90.56;100336.88;5026197;28;20064;-64
2024/01/15 05:01:44;;;;;;;26.25;14.52;;;;;;;3.13;90.47;100338.50;5026247;28;20052;-65
2024/01/15 05:04:11;;;;;;;26.25;14.40;;;;;;;3.10;90.92;100336.34;5028235;28;20058;-65
2024/01/15 05:06:39;;;;;;;27.63;15.48;;;;;;;3.03;91.25;100333.88;5024553;28;20041;-60
2024/01/15 05:09:06;;;;;;;26.02;14.32;;;;;;;3.13;91.04;100338.50;5026571;28;20045;-59
2024/01/15 05:11:34;;;;;;;26.30;13.88;;;;;;;2.99;90.62;100338.25;5026194;28;20722;-57
2024/01/15 05:14:01;;;;;;;28.50;15.93;;;;;;;3.13;91.34;100344.78;5026791;28;20504;-68
2024/01/15 05:16:28;;;;;;;29.15;15.23;;;;;;;3.24;91.42;100332.78;5025271;28;20045;-65
2024/01/15 05:18:56;;;;;;;28.45;15.25;;;;;;;3.14;90.78;100337.41;5010225;28;20068;-59
2024/01/15 05:21:23;;;;;;;25.35;14.60;;;;;;;3.01;91.08;100335.25;5025954;28;20056;-65
2024/01/15 05:23:50;;;;;;;25.05;13.98;;;;;;;3.22;90.79;100328.72;5026019;28;20057;-64
2024/01/15 05:26:18;;;;;;;28.30;14.88;;;;;;;3.11;90.85;100337.97;5025867;28;20513;-65
2024/01/15 05:28:45;;;;;;;27.75;15.13;;;;;;;3.26;92.04;100333.31;5025529;28;20053;-65
2024/01/15 05:31:32;;;;;;;27.38;14.45;;;;;;;3.01;90.58;100324.38;5027993;28;20083;-66
2024/01/15 05:34:33;;;;;;;26.00;14.52;;;;;;;2.96;92.04;100319.78;5013680;28;20041;-60
2024/01/15 05:37:03;;;;;;;24.40;13.93;;;;;;;2.94;92.13;100324.66;5013714;28;20052;-57
2024/01/15 05:39:31;;;;;;;24.95;13.43;;;;;;;2.83;92.76;100311.31;5027649;28;20056;-65
2024/01/15 05:41:59;;;;;;;25.13;13.23;;;;;;;2.79;93.90;100313.75;5026359;28;20177;-59
2024/01/15 05:44:27;;;;;;;25.50;13.65;;;;;;;2.98;93.74;100316.78;5029889;28;20053;-60
2024/01/15 05:47:26;;;;;;;;;;;;;;;;;;;;;
2024/01/15 05:50:19;;;;;;;25.45;13.32;;;;;;;3.21;93.91;100319.72;5017860;28;20049;-59
2024/01/15 05:53:45;;;;;;;25.73;12.85;;;;;;;3.12;93.34;100305.03;5016552;28;20059;-62
2024/01/15 05:57:07;;;;;;;25.00;12.88;;;;;;;3.23;94.14;100306.66;5029338;28;20037;-61
2024/01/15 06:00:06;;;;;;;22.33;11.90;;;;;;;3.06;94.47;100303.44;5009980;28;20052;-60
2024/01/15 06:02:33;;;;;;;22.55;11.63;;;;;;;3.01;95.43;100297.16;5026994;28;20145;-59
2024/01/15 06:05:02;;;;;;;20.20;10.95;;;;;;;2.97;95.92;100293.34;5025106;28;20049;-59
2024/01/15 06:07:30;;;;;;;22.73;12.07;;;;;;;3.09;96.00;100293.88;5023147;28;20064;-60
2024/01/15 06:10:21;;;;;;;25.35;12.93;;;;;;;3.26;94.88;100305.31;5026075;28;20053;-61
2024/01/15 06:12:53;;;;;;;20.23;11.50;;;;;;;3.07;95.13;100301.50;5018241;28;20045;-57
2024/01/15 06:15:20;;;;;;;25.17;13.35;;;;;;;3.23;95.76;100301.22;5024685;28;20515;-60
2024/01/15 06:17:47;;;;;;;22.35;11.88;;;;;;;3.47;95.96;100310.41;5024262;28;20037;-61
2024/01/15 06:20:15;;;;;;;20.05;11.05;;;;;;;3.56;95.11;100296.25;5026235;28;20049;-60
2024/01/15 06:22:42;;;;;;;21.52;12.05;;;;;;;3.46;94.02;100299.78;5025991;28;20065;-63
2024/01/15 06:25:09;;;;;;;23.25;12.20;;;;;;;3.37;94.50;100306.91;5026069;28;20079;-58
2024/01/15 06:27:37;;;;;;;24.83;13.02;;;;;;;3.18;95.23;100305.84;5026778;28;20097;-62
2024/01/15 06:30:05;;;;;;;24.95;13.23;;;;;;;3.31;95.65;100305.28;5024441;28;20050;-59
2024/01/15 06:32:52;;;;;;;23.70;13.48;;;;;;;3.08;95.41;100309.41;5026375;28;20045;-63
2024/01/15 06:35:20;;;;;;;26.40;14.18;;;;;;;2.92;96.48;100307.78;5025184;28;20692;-60
2024/01/15 06:38:02;;;;;;;24.63;13.27;;;;;;;3.06;97.21;100310.75;5026431;28;20072;-60
2024/01/15 06:41:21;;;;;;;25.50;14.13;;;;;;;3.18;96.69;100317.56;4997542;28;20057;-60
2024/01/15 06:44:15;;;;;;;25.33;14.02;;;;;;;3.12;96.44;100323.28;4976941;28;20132;-58
2024/01/15 06:46:43;;;;;;;26.35;14.05;;;;;;;3.16;96.86;100321.63;5025626;28;20076;-60
2024/01/15 06:49:11;;;;;;;24.35;13.48;;;;;;;3.08;96.23;100309.41;5028616;28;20817;-60
2024/01/15 06:51:40;;;;;;;24.90;14.33;;;;;;;3.29;96.29;100304.75;5008299;28;20060;-67
2024/01/15 06:54:10;;;;;;;29.65;15.27;;;;;;;3.30;96.63;100306.38;5025025;28;20052;-59
2024/01/15 06:56:38;;;;;;;26.40;14.73;;;;;;;3.54;95.84;100312.81;4999461;28;20068;-61
2024/01/15 06:59:07;;;;;;;24.42;13.30;;;;;;;3.62;95.28;100319.63;5026131;28;20060;-61
2024/01/15 07:01:34;;;;;;;27.02;14.38;;;;;;;3.41;94.73;100321.59;5025803;28;20381;-59
2024/01/15 07:04:02;;;;;;;23.45;13.32;;;;;;;2.98;95.29;100319.50;5023131;28;20052;-57
2024/01/15 07:06:30;;;;;;;27.58;14.73;;;;;;;2.98;96.91;100319.50;5026502;28;20053;-58
2024/01/15 07:09:10;;;;;;;26.58;14.15;;;;;;;3.02;97.08;100320.56;5024664;28;20543;-62
2024/01/15 07:11:56;;;;;;;25.00;13.68;;;;;;;3.14;97.64;100318.38;5011313;28;20061;-61
2024/01/15 07:14:24;;;;;;;27.83;15.18;;;;;;;3.46;96.54;100316.13;5023733;28;20053;-65
2024/01/15 07:16:51;;;;;;;27.42;14.18;;;;;;;3.29;95.33;100305.56;5024082;28;20049;-65
2024/01/15 07:19:18;;;;;;;27.95;14.77;;;;;;;3.19;95.72;100302.84;5025895;28;20049;-64
2024/01/15 07:21:46;;;;;;;26.02;14.05;;;;;;;3.35;95.81;100320.78;5024764;28;20057;-65
2024/01/15 07:24:14;;;;;;;25.85;13.40;;;;;;;3.41;95.77;100318.88;5024435;28;20061;-64
2024/01/15 07:26:41;;;;;;;27.08;14.50;;;;;;;3.57;94.73;100316.91;5024989;28;20049;-64
2024/01/15 07:29:08;;;;;;;29.55;15.50;;;;;;;3.63;94.84;100332.97;5025876;28;20049;-65
2024/01/15 07:31:35;;;;;;;27.90;14.35;;;;;;;3.62;95.51;100339.50;5024859;28;20385;-65
2024/01/15 07:34:03;;;;;;;27.50;15.20;;;;;;;3.48;95.24;100343.91;5024024;28;20071;-64
2024/01/15 07:36:32;;;;;;;28.40;14.95;;;;;;;3.57;94.40;100344.97;5027120;28;20053;-64
2024/01/15 07:39:02;;;;;;;28.30;15.20;;;;;;;3.77;93.91;100357.69;5025122;28;20065;-65
2024/01/15 07:41:30;;;;;;;29.33;14.88;;;;;;;3.63;92.82;100352.03;5012787;28;20058;-65
2024/01/15 07:43:58;;;;;;;32.35;16.02;;;;;;;3.40;93.75;100345.28;5031787;28;20052;-65
2024/01/15 07:46:31;;;;;;;27.08;15.27;;;;;;;3.54;93.51;100342.78;5028894;28;20484;-65
2024/01/15 07:48:59;;;;;;;29.67;14.98;;;;;;;3.65;93.62;100354.47;5031728;28;20052;-64
2024/01/15 07:51:26;;;;;;;30.48;16.67;;;;;;;3.60;93.07;100349.84;5030637;28;20061;-64
2024/01/15 07:53:55;;;;;;;27.13;15.35;;;;;;;3.53;92.68;100362.94;5031186;28;20357;-65
2024/01/15 07:56:22;;;;;;;30.85;17.20;;;;;;;3.59;92.94;100361.84;5023774;28;20050;-64
2024/01/15 07:58:50;;;;;;;31.15;17.10;;;;;;;3.54;92.75;100367.28;5020151;28;20054;-64
2024/01/15 08:01:17;;;;;;;29.13;15.70;;;;;;;3.62;92.61;100361.28;5012772;28;20053;-65
2024/01/15 08:03:44;;;;;;;30.85;17.27;;;;;;;3.76;92.21;100365.06;5029405;28;20049;-65
2024/01/15 08:06:12;;;;;;;31.55;17.25;;;;;;;3.65;91.74;100368.06;5029739;28;20049;-65
2024/01/15 08:08:39;;;;;;;30.35;16.70;;;;;;;3.55;92.16;100373.56;5023449;28;20050;-64
2024/01/15 08:11:07;;;;;;;33.55;17.88;;;;;;;3.73;92.20;100370.25;5028149;28;20049;-65
2024/01/15 08:13:34;;;;;;;29.02;16.88;;;;;;;3.85;91.53;100378.94;5032506;28;20065;-65
2024/01/15 08:16:02;;;;;;;28.42;16.05;;;;;;;3.88;91.70;100378.38;5026495;28;20058;-63
2024/01/15 08:18:29;;;;;;;23.40;14.40;;;;;;;5.12;98.73;100372.44;5029672;28;20052;-62
2024/01/15 08:20:57;;;;;;;31.52;15.77;;;;;;;5.23;92.64;100368.53;5028076;28;20049;-63
2024/01/15 08:23:27;;;;;;;28.77;15.57;;;;;;;5.02;88.74;100365.16;5031133;28;20084;-62
2024/01/15 08:25:55;;;;;;;27.98;15.70;;;;;;;4.79;86.96;100370.53;5030270;28;20053;-63
2024/01/15 08:28:22;;;;;;;28.73;15.27;;;;;;;4.88;86.02;100388.72;5028388;28;20042;-63
2024/01/15 08:30:49;;;;;;;30.13;16.55;;;;;;;4.83;85.63;100387.97;5027982;28;20420;-59
2024/01/15 08:33:17;;;;;;;30.08;15.95;;;;;;;4.84;86.03;100387.69;5039994;28;20061;-58
2024/01/15 08:35:48;;;;;;;27.83;15.52;;;;;;;4.97;85.82;100380.78;5024877;28;20049;-59
2024/01/15 08:38:16;;;;;;;28.85;16.73;;;;;;;4.82;84.56;100392.59;5025881;28;21999;-57
2024/01/15 08:40:43;;;;;;;32.50;16.05;;;;;;;4.60;85.20;100395.72;5023575;28;20077;-57
2024/01/15 08:43:10;;;;;;;27.30;15.23;;;;;;;4.84;84.66;100397.78;5027366;28;20064;-58
2024/01/15 08:45:38;;;;;;;29.42;16.73;;;;;;;4.60;85.94;100405.84;5023197;28;20052;-58
2024/01/15 08:48:05;;;;;;;28.95;16.90;;;;;;;4.67;86.10;100408.25;5024730;28;20048;-59
2024/01/15 08:50:33;;;;;;;28.52;15.80;;;;;;;4.96;85.41;100409.16;5043125;28;20050;-57
2024/01/15 08:53:12;;;;;;;;;;;;;;;;;;;;;
2024/01/15 08:55:44;;;;;;;25.52;14.18;;;;;;;4.83;84.41;100424.22;5022155;28;20136;-55
2024/01/15 08:58:12;;;;;;;25.65;14.30;;;;;;;4.65;85.12;100421.34;5012504;28;20049;-56
2024/01/15 09:00:39;;;;;;;27.90;14.70;;;;;;;4.18;85.14;100428.13;5025639;28;20507;-59
2024/01/15 09:03:08;;;;;;;29.13;15.43;;;;;;;4.09;86.35;100418.91;5029979;28;20053;-59
2024/01/15 09:05:35;;;;;;;28.27;14.23;;;;;;;4.29;86.68;100429.72;5025777;28;20080;-59
2024/01/15 09:08:03;;;;;;;20.27;11.63;;;;;;;4.11;84.62;100437.69;5026845;28;20060;-56
2024/01/15 09:10:31;;;;;;;24.58;12.00;;;;;;;4.01;84.42;100437.75;5026555;28;20075;-57
2024/01/15 09:13:00;;;;;;;20.83;11.15;;;;;;;3.62;85.93;100439.44;5027538;28;20044;-55
2024/01/15 09:15:27;;;;;;;18.40;10.60;;;;;;;3.91;84.74;100443.19;5025651;28;20057;-56
2024/01/15 09:17:57;;;;;;;21.42;10.07;;;;;;;4.03;82.94;100446.44;5026208;28;20421;-60
2024/01/15 09:20:25;;;;;;;24.95;11.00;;;;;;;3.68;82.86;100450.03;5028315;28;20057;-57
2024/01/15 09:22:53;;;;;;;20.85;11.27;;;;;;;3.49;84.52;100450.91;5029365;28;20050;-58
2024/01/15 09:25:20;;;;;;;20.00;11.13;;;;;;;3.54;84.93;100459.84;5028892;28;20045;-58
2024/01/15 09:27:48;;;;;;;19.90;10.82;;;;;;;3.44;86.08;100449.81;5022327;28;20053;-57
2024/01/15 09:30:15;;;;;;;20.80;10.57;;;;;;;3.50;85.42;100452.53;5028840;28;20052;-57
2024/01/15 09:32:49;;;;;;;27.40;11.07;;;;;;;3.50;85.13;100455.25;5029611;28;20053;-59
2024/01/15 09:35:16;;;;;;;22.27;11.75;;;;;;;3.58;84.94;100454.69;5030176;28;20444;-59
2024/01/15 09:37:43;;;;;;;20.02;10.50;;;;;;;3.23;85.43;100460.94;5029495;28;20057;-60
2024/01/15 09:40:15;;;;;;;21.95;11.10;;;;;;;3.58;85.34;100462.84;5027155;28;20053;-59
2024/01/15 09:42:43;;;;;;;24.90;11.43;;;;;;;3.61;83.10;100454.94;5027090;28;20064;-59
2024/01/15 09:45:11;;;;;;;20.20;10.10;;;;;;;3.59;84.27;100457.16;5011337;28;20060;-61
2024/01/15 09:47:41;;;;;;;22.20;10.77;;;;;;;3.81;82.96;100465.84;5024793;28;20057;-59
2024/01/15 09:50:13;;;;;;;19.70;10.18;;;;;;;3.66;82.61;100463.13;5029292;28;20060;-57
2024/01/15 09:52:41;;;;;;;20.13;10.75;;;;;;;3.74;82.53;100469.94;5030442;28;20072;-58
2024/01/15 09:55:09;;;;;;;20.50;9.70;;;;;;;3.70;81.29;100460.66;5026676;28;20045;-59
2024/01/15 09:57:36;;;;;;;21.73;10.57;;;;;;;3.99;80.55;100470.69;5007577;28;20049;-57
2024/01/15 10:00:06;;;;;;;17.15;9.45;;;;;;;4.10;80.02;100466.84;5020295;28;20068;-60
2024/01/15 10:02:35;;;;;;;17.55;9.90;;;;;;;3.84;79.01;100473.44;5026324;28;20063;-58
2024/01/15 10:05:02;;;;;;;19.65;8.93;;;;;;;4.03;79.62;100479.13;5026940;28;20060;-60
2024/01/15 10:07:33;;;;;;;16.27;8.60;;;;;;;4.30;77.10;100468.69;5031472;28;20049;-58
2024/01/15 10:10:01;;;;;;;19.52;8.77;;;;;;;4.15;76.42;100475.00;5021360;28;20513;-59
2024/01/15 10:12:28;;;;;;;17.60;8.48;;;;;;;4.33;76.47;100479.88;5026758;28;20046;-57
2024/01/15 10:14:56;;;;;;;18.17;8.70;;;;;;;4.42;75.84;100482.84;5029490;28;20060;-57
2024/01/15 10:17:24;;;;;;;20.23;9.05;;;;;;;4.25;75.73;100485.88;5025542;28;20045;-59
2024/01/15 10:19:51;;;;;;;22.15;8.65;;;;;;;4.24;75.96;100481.53;5022250;28;20049;-57
2024/01/15 10:22:19;;;;;;;17.83;8.93;;;;;;;4.19;75.86;100480.72;5027645;28;20072;-59
2024/01/15 10:24:46;;;;;;;19.80;8.55;;;;;;;4.28;74.93;100482.63;5029409;28;20058;-64
2024/01/15 10:27:15;;;;;;;15.60;6.68;;;;;;;4.01;73.15;100481.34;5021304;28;20050;-64
2024/01/15 10:29:43;;;;;;;17.48;7.13;;;;;;;4.04;73.09;100472.59;5027224;28;20052;-64
2024/01/15 10:32:11;;;;;;;15.48;6.60;;;;;;;3.64;73.28;100481.66;5023399;28;20765;-63
2024/01/15 10:34:40;;;;;;;14.70;7.03;;;;;;;3.75;73.97;100483.25;5022698;28;20052;-64
2024/01/15 10:37:09;;;;;;;15.73;7.07;;;;;;;3.89;72.71;100489.00;5030434;28;20049;-65
2024/01/15 10:39:37;;;;;;;17.80;6.18;;;;;;;4.02;71.40;100488.41;5027842;28;20096;-64
2024/01/15 10:42:06;;;;;;;11.68;5.43;;;;;;;3.98;69.21;100490.88;5030404;28;20061;-64
2024/01/15 10:44:35;;;;;;;13.40;4.90;;;;;;;3.97;68.33;100508.31;5034633;28;21264;-64
2024/01/15 10:47:04;;;;;;;8.90;3.85;;;;;;;3.65;66.47;100494.19;5027469;28;20331;-65
2024/01/15 10:49:32;;;;;;;9.98;4.90;;;;;;;3.90;66.82;100501.50;5027323;28;20060;-63
2024/01/15 10:52:02;;;;;;;14.23;4.32;;;;;;;3.99;65.04;100497.13;5030658;28;20069;-64
2024/01/15 10:54:30;;;;;;;11.48;4.53;;;;;;;3.82;66.75;100504.78;5030201;28;20061;-64
2024/01/15 10:56:58;;;;;;;14.75;5.63;;;;;;;4.18;65.55;100504.47;5031586;28;20049;-64
2024/01/15 10:59:25;;;;;;;16.65;4.63;;;;;;;4.23;65.03;100499.00;5025580;28;20056;-63
2024/01/15 11:01:53;;;;;;;11.13;4.57;;;;;;;4.50;64.18;100493.16;5028032;28;20084;-65
2024/01/15 11:04:23;;;;;;;9.43;3.83;;;;;;;4.15;62.76;100505.00;5026578;28;20060;-63
2024/01/15 11:06:56;;;;;;;9.13;3.53;;;;;;;3.90;63.65;100499.59;5029855;28;20057;-64
2024/01/15 11:09:24;;;;;;;8.23;3.30;;;;;;;4.15;62.72;100502.25;5030677;28;20053;-64
2024/01/15 11:12:06;;;;;;;9.48;3.00;;;;;;;3.93;61.69;100492.78;5029606;28;20080;-65
2024/01/15 11:14:49;;;;;;;9.10;3.70;;;;;;;4.16;62.54;100500.38;5024069;28;20076;-64
2024/01/15 11:17:17;;;;;;;14.30;4.22;;;;;;;4.12;61.73;100493.81;5029440;28;20057;-64
2024/01/15 11:19:50;;;;;;;8.63;2.92;;;;;;;3.91;59.14;100493.06;5035536;28;20053;-64
2024/01/15 11:22:30;;;;;;;13.13;4.60;;;;;;;3.97;60.48;100505.59;5032841;28;20056;-64
2024/01/15 11:25:01;;;;;;;12.75;4.55;;;;;;;3.95;60.16;100491.41;5033053;28;20059;-64
2024/01/15 11:27:43;;;;;;;11.82;3.83;;;;;;;3.97;59.74;100511.03;5034704;28;20057;-63
2024/01/15 11:30:14;;;;;;;8.05;2.42;;;;;;;3.83;57.99;100515.41;5032864;28;20060;-63
2024/01/15 11:32:42;;;;;;;10.32;3.83;;;;;;;3.84;58.41;100497.13;5035753;28;20061;-63